sensor_id;sensor_type;location;lat;lon;timestamp;temperature;humidity
17039;DHT22;8636;55.750;13.202;2024-03-02T00:00:33;6.20;99.90
17039;DHT22;8636;55.750;13.202;2024-03-02T00:03:01;6.30;99.90
17039;DHT22;8636;55.750;13.202;2024-03-02T00:05:43;6.40;99.90
17039;DHT22;8636;55.750;13.202;2024-03-02T00:08:12;6.40;99.90
17039;DHT22;8636;55.750;13.202;2024-03-02T00:10:52;6.50;99.90
17039;DHT22;8636;55.750;13.202;2024-03-02T00:13:25;6.60;99.90
17039;DHT22;8636;55.750;13.202;2024-03-02T00:16:00;6.60;99.90
17039;DHT22;8636;55.750;13.202;2024-03-02T00:18:31;6.60;99.90
17039;DHT22;8636;55.750;13.202;2024-03-02T00:21:06;6.60;99.90
17039;DHT22;8636;55.750;13.202;2024-03-02T00:23:37;6.50;99.90
17039;DHT22;8636;55.750;13.202;2024-03-02T00:26:13;6.50;99.90
17039;DHT22;8636;55.750;13.202;2024-03-02T00:28:42;6.50;99.90
17039;DHT22;8636;55.750;13.202;2024-03-02T00:31:20;6.50;99.90
17039;DHT22;8636;55.750;13.202;2024-03-02T00:33:49;6.40;99.90
17039;DHT22;8636;55.750;13.202;2024-03-02T00:36:25;6.40;99.90
17039;DHT22;8636;55.750;13.202;2024-03-02T00:38:54;6.50;99.90
17039;DHT22;8636;55.750;13.202;2024-03-02T00:41:31;6.40;99.90
17039;DHT22;8636;55.750;13.202;2024-03-02T00:44:00;6.40;99.90
17039;DHT22;8636;55.750;13.202;2024-03-02T00:46:36;6.40;99.90
17039;DHT22;8636;55.750;13.202;2024-03-02T00:49:05;6.40;99.90
17039;DHT22;8636;55.750;13.202;2024-03-02T00:51:41;6.40;99.90
17039;DHT22;8636;55.750;13.202;2024-03-02T00:54:10;6.40;99.90
17039;DHT22;8636;55.750;13.202;2024-03-02T00:56:47;6.40;99.90
17039;DHT22;8636;55.750;13.202;2024-03-02T00:59:15;6.40;99.90
17039;DHT22;8636;55.750;13.202;2024-03-02T01:01:50;6.50;99.90
17039;DHT22;8636;55.750;13.202;2024-03-02T01:04:19;6.50;99.90
17039;DHT22;8636;55.750;13.202;2024-03-02T01:07:01;6.50;99.90
17039;DHT22;8636;55.750;13.202;2024-03-02T01:09:29;6.50;99.90
17039;DHT22;8636;55.750;13.202;2024-03-02T01:12:06;6.50;99.90
17039;DHT22;8636;55.750;13.202;2024-03-02T01:14:34;6.50;99.90
17039;DHT22;8636;55.750;13.202;2024-03-02T01:17:09;6.50;99.90
17039;DHT22;8636;55.750;13.202;2024-03-02T01:19:37;6.50;99.90
17039;DHT22;8636;55.750;13.202;2024-03-02T01:22:14;6.50;99.90
17039;DHT22;8636;55.750;13.202;2024-03-02T01:24:45;6.50;99.90
17039;DHT22;8636;55.750;13.202;2024-03-02T01:27:21;6.50;99.90
17039;DHT22;8636;55.750;13.202;2024-03-02T01:29:49;6.40;99.90
17039;DHT22;8636;55.750;13.202;2024-03-02T01:32:24;6.40;99.90
17039;DHT22;8636;55.750;13.202;2024-03-02T01:34:52;6.30;99.90
17039;DHT22;8636;55.750;13.202;2024-03-02T01:37:20;6.30;99.90
17039;DHT22;8636;55.750;13.202;2024-03-02T01:39:55;6.20;99.90
17039;DHT22;8636;55.750;13.202;2024-03-02T01:42:24;6.20;99.90
17039;DHT22;8636;55.750;13.202;2024-03-02T01:44:52;6.10;99.90
17039;DHT22;8636;55.750;13.202;2024-03-02T01:47:27;6.20;99.90
17039;DHT22;8636;55.750;13.202;2024-03-02T01:49:55;6.10;99.90
17039;DHT22;8636;55.750;13.202;2024-03-02T01:52:23;6.10;99.90
17039;DHT22;8636;55.750;13.202;2024-03-02T01:54:58;6.00;99.90
17039;DHT22;8636;55.750;13.202;2024-03-02T01:57:27;6.00;99.90
17039;DHT22;8636;55.750;13.202;2024-03-02T01:59:56;6.00;99.90
17039;DHT22;8636;55.750;13.202;2024-03-02T02:02:31;6.00;99.90
17039;DHT22;8636;55.750;13.202;2024-03-02T02:05:06;5.90;99.90
17039;DHT22;8636;55.750;13.202;2024-03-02T02:07:41;5.80;99.90
17039;DHT22;8636;55.750;13.202;2024-03-02T02:10:10;5.80;99.90
17039;DHT22;8636;55.750;13.202;2024-03-02T02:12:40;5.80;99.90
17039;DHT22;8636;55.750;13.202;2024-03-02T02:15:25;5.80;99.90
17039;DHT22;8636;55.750;13.202;2024-03-02T02:17:53;5.90;99.90
17039;DHT22;8636;55.750;13.202;2024-03-02T02:20:28;6.00;99.90
17039;DHT22;8636;55.750;13.202;2024-03-02T02:22:58;6.00;99.90
17039;DHT22;8636;55.750;13.202;2024-03-02T02:25:27;6.00;99.90
17039;DHT22;8636;55.750;13.202;2024-03-02T02:28:02;6.00;99.90
17039;DHT22;8636;55.750;13.202;2024-03-02T02:30:31;6.00;99.90
17039;DHT22;8636;55.750;13.202;2024-03-02T02:33:00;6.10;99.90
17039;DHT22;8636;55.750;13.202;2024-03-02T02:35:35;6.10;99.90
17039;DHT22;8636;55.750;13.202;2024-03-02T02:38:05;6.10;99.90
17039;DHT22;8636;55.750;13.202;2024-03-02T02:40:32;6.00;99.90
17039;DHT22;8636;55.750;13.202;2024-03-02T02:43:07;6.00;99.90
17039;DHT22;8636;55.750;13.202;2024-03-02T02:45:35;6.00;99.90
17039;DHT22;8636;55.750;13.202;2024-03-02T02:48:03;6.10;99.90
17039;DHT22;8636;55.750;13.202;2024-03-02T02:50:38;6.20;99.90
17039;DHT22;8636;55.750;13.202;2024-03-02T02:53:07;6.20;99.90
17039;DHT22;8636;55.750;13.202;2024-03-02T02:55:36;6.30;99.90
17039;DHT22;8636;55.750;13.202;2024-03-02T02:58:13;6.30;99.90
17039;DHT22;8636;55.750;13.202;2024-03-02T03:00:41;6.30;99.90
17039;DHT22;8636;55.750;13.202;2024-03-02T03:03:09;6.30;99.90
17039;DHT22;8636;55.750;13.202;2024-03-02T03:05:44;6.30;99.90
17039;DHT22;8636;55.750;13.202;2024-03-02T03:08:19;6.40;99.90
17039;DHT22;8636;55.750;13.202;2024-03-02T03:10:56;6.40;99.90
17039;DHT22;8636;55.750;13.202;2024-03-02T03:13:24;6.40;99.90
17039;DHT22;8636;55.750;13.202;2024-03-02T03:15:52;6.40;99.90
17039;DHT22;8636;55.750;13.202;2024-03-02T03:18:27;6.40;99.90
17039;DHT22;8636;55.750;13.202;2024-03-02T03:20:55;6.50;99.90
17039;DHT22;8636;55.750;13.202;2024-03-02T03:23:25;6.50;99.90
17039;DHT22;8636;55.750;13.202;2024-03-02T03:26:00;6.50;99.90
17039;DHT22;8636;55.750;13.202;2024-03-02T03:28:28;6.50;99.90
17039;DHT22;8636;55.750;13.202;2024-03-02T03:30:56;6.50;99.90
17039;DHT22;8636;55.750;13.202;2024-03-02T03:33:31;6.50;99.90
17039;DHT22;8636;55.750;13.202;2024-03-02T03:35:59;6.60;99.90
17039;DHT22;8636;55.750;13.202;2024-03-02T03:38:28;6.70;99.90
17039;DHT22;8636;55.750;13.202;2024-03-02T03:41:03;6.60;99.90
17039;DHT22;8636;55.750;13.202;2024-03-02T03:43:32;6.70;99.90
17039;DHT22;8636;55.750;13.202;2024-03-02T03:46:00;6.70;99.90
17039;DHT22;8636;55.750;13.202;2024-03-02T03:48:35;6.70;99.90
17039;DHT22;8636;55.750;13.202;2024-03-02T03:51:03;6.70;99.90
17039;DHT22;8636;55.750;13.202;2024-03-02T03:53:33;6.70;99.90
17039;DHT22;8636;55.750;13.202;2024-03-02T03:56:08;6.70;99.90
17039;DHT22;8636;55.750;13.202;2024-03-02T03:58:38;6.70;99.90
17039;DHT22;8636;55.750;13.202;2024-03-02T04:01:07;6.70;99.90
17039;DHT22;8636;55.750;13.202;2024-03-02T04:03:48;6.70;99.90
17039;DHT22;8636;55.750;13.202;2024-03-02T04:06:31;6.70;99.90
17039;DHT22;8636;55.750;13.202;2024-03-02T04:09:07;6.80;99.90
17039;DHT22;8636;55.750;13.202;2024-03-02T04:11:35;6.80;99.90
17039;DHT22;8636;55.750;13.202;2024-03-02T04:14:03;6.80;99.90
17039;DHT22;8636;55.750;13.202;2024-03-02T04:16:39;6.90;99.90
17039;DHT22;8636;55.750;13.202;2024-03-02T04:19:07;6.90;99.90
17039;DHT22;8636;55.750;13.202;2024-03-02T04:21:35;6.90;99.90
17039;DHT22;8636;55.750;13.202;2024-03-02T04:24:12;6.90;99.90
17039;DHT22;8636;55.750;13.202;2024-03-02T04:26:39;6.90;99.90
17039;DHT22;8636;55.750;13.202;2024-03-02T04:29:07;6.90;99.90
17039;DHT22;8636;55.750;13.202;2024-03-02T04:31:42;6.90;99.90
17039;DHT22;8636;55.750;13.202;2024-03-02T04:34:10;7.00;99.90
17039;DHT22;8636;55.750;13.202;2024-03-02T04:36:39;7.00;99.90
17039;DHT22;8636;55.750;13.202;2024-03-02T04:39:14;7.00;99.90
17039;DHT22;8636;55.750;13.202;2024-03-02T04:41:42;7.00;99.90
17039;DHT22;8636;55.750;13.202;2024-03-02T04:44:10;7.10;99.90
17039;DHT22;8636;55.750;13.202;2024-03-02T04:46:45;7.00;99.90
17039;DHT22;8636;55.750;13.202;2024-03-02T04:49:13;7.00;99.90
17039;DHT22;8636;55.750;13.202;2024-03-02T04:51:41;7.00;99.90
17039;DHT22;8636;55.750;13.202;2024-03-02T04:54:17;7.00;99.90
17039;DHT22;8636;55.750;13.202;2024-03-02T04:56:45;7.00;99.90
17039;DHT22;8636;55.750;13.202;2024-03-02T04:59:23;7.00;99.90
17039;DHT22;8636;55.750;13.202;2024-03-02T05:01:51;7.10;99.90
17039;DHT22;8636;55.750;13.202;2024-03-02T05:04:19;7.10;99.90
17039;DHT22;8636;55.750;13.202;2024-03-02T05:07:00;7.10;99.90
17039;DHT22;8636;55.750;13.202;2024-03-02T05:09:30;7.10;99.90
17039;DHT22;8636;55.750;13.202;2024-03-02T05:12:05;7.00;99.90
17039;DHT22;8636;55.750;13.202;2024-03-02T05:14:47;7.00;99.90
17039;DHT22;8636;55.750;13.202;2024-03-02T05:17:22;7.00;99.90
17039;DHT22;8636;55.750;13.202;2024-03-02T05:19:50;7.00;99.90
17039;DHT22;8636;55.750;13.202;2024-03-02T05:22:18;7.00;99.90
17039;DHT22;8636;55.750;13.202;2024-03-02T05:24:54;7.00;99.90
17039;DHT22;8636;55.750;13.202;2024-03-02T05:27:23;7.00;99.90
17039;DHT22;8636;55.750;13.202;2024-03-02T05:29:51;7.00;99.90
17039;DHT22;8636;55.750;13.202;2024-03-02T05:32:26;7.00;99.90
17039;DHT22;8636;55.750;13.202;2024-03-02T05:34:54;7.00;99.90
17039;DHT22;8636;55.750;13.202;2024-03-02T05:37:23;7.00;99.90
17039;DHT22;8636;55.750;13.202;2024-03-02T05:39:59;7.00;99.90
17039;DHT22;8636;55.750;13.202;2024-03-02T05:42:27;7.00;99.90
17039;DHT22;8636;55.750;13.202;2024-03-02T05:44:55;7.00;99.90
17039;DHT22;8636;55.750;13.202;2024-03-02T05:47:30;7.00;99.90
17039;DHT22;8636;55.750;13.202;2024-03-02T05:49:59;6.90;99.90
17039;DHT22;8636;55.750;13.202;2024-03-02T05:52:27;7.00;99.90
17039;DHT22;8636;55.750;13.202;2024-03-02T05:55:04;7.00;99.90
17039;DHT22;8636;55.750;13.202;2024-03-02T05:57:32;6.90;99.90
17039;DHT22;8636;55.750;13.202;2024-03-02T06:00:20;6.90;99.90
17039;DHT22;8636;55.750;13.202;2024-03-02T06:02:48;6.90;99.90
17039;DHT22;8636;55.750;13.202;2024-03-02T06:05:17;6.90;99.90
17039;DHT22;8636;55.750;13.202;2024-03-02T06:07:52;6.90;99.90
17039;DHT22;8636;55.750;13.202;2024-03-02T06:10:21;6.90;99.90
17039;DHT22;8636;55.750;13.202;2024-03-02T06:12:49;6.90;99.90
17039;DHT22;8636;55.750;13.202;2024-03-02T06:15:24;6.90;99.90
17039;DHT22;8636;55.750;13.202;2024-03-02T06:17:52;7.00;99.90
17039;DHT22;8636;55.750;13.202;2024-03-02T06:20:20;6.90;99.90
17039;DHT22;8636;55.750;13.202;2024-03-02T06:22:56;6.90;99.90
17039;DHT22;8636;55.750;13.202;2024-03-02T06:25:26;7.00;99.90
17039;DHT22;8636;55.750;13.202;2024-03-02T06:27:54;7.00;99.90
17039;DHT22;8636;55.750;13.202;2024-03-02T06:30:29;6.90;99.90
17039;DHT22;8636;55.750;13.202;2024-03-02T06:32:57;7.00;99.90
17039;DHT22;8636;55.750;13.202;2024-03-02T06:35:25;7.00;99.90
17039;DHT22;8636;55.750;13.202;2024-03-02T06:38:00;7.00;99.90
17039;DHT22;8636;55.750;13.202;2024-03-02T06:40:29;7.00;99.90
17039;DHT22;8636;55.750;13.202;2024-03-02T06:42:58;7.00;99.90
17039;DHT22;8636;55.750;13.202;2024-03-02T06:45:33;7.00;99.90
17039;DHT22;8636;55.750;13.202;2024-03-02T06:48:01;7.00;99.90
17039;DHT22;8636;55.750;13.202;2024-03-02T06:50:30;7.00;99.90
17039;DHT22;8636;55.750;13.202;2024-03-02T06:53:04;7.00;99.90
17039;DHT22;8636;55.750;13.202;2024-03-02T06:55:33;7.00;99.90
17039;DHT22;8636;55.750;13.202;2024-03-02T06:58:01;7.00;99.90
17039;DHT22;8636;55.750;13.202;2024-03-02T07:00:36;7.00;99.90
17039;DHT22;8636;55.750;13.202;2024-03-02T07:03:04;7.00;99.90
17039;DHT22;8636;55.750;13.202;2024-03-02T07:05:32;7.10;99.90
17039;DHT22;8636;55.750;13.202;2024-03-02T07:08:07;7.10;99.90
17039;DHT22;8636;55.750;13.202;2024-03-02T07:10:36;7.10;99.90
17039;DHT22;8636;55.750;13.202;2024-03-02T07:13:04;7.10;99.90
17039;DHT22;8636;55.750;13.202;2024-03-02T07:15:39;7.10;99.90
17039;DHT22;8636;55.750;13.202;2024-03-02T07:18:26;7.10;99.90
17039;DHT22;8636;55.750;13.202;2024-03-02T07:21:01;7.20;99.90
17039;DHT22;8636;55.750;13.202;2024-03-02T07:23:29;7.20;99.90
17039;DHT22;8636;55.750;13.202;2024-03-02T07:26:00;7.20;99.90
17039;DHT22;8636;55.750;13.202;2024-03-02T07:28:38;7.20;99.90
17039;DHT22;8636;55.750;13.202;2024-03-02T07:31:07;7.30;99.90
17039;DHT22;8636;55.750;13.202;2024-03-02T07:33:44;7.30;99.90
17039;DHT22;8636;55.750;13.202;2024-03-02T07:36:15;7.30;99.90
17039;DHT22;8636;55.750;13.202;2024-03-02T07:38:50;7.40;99.90
17039;DHT22;8636;55.750;13.202;2024-03-02T07:41:19;7.30;99.90
17039;DHT22;8636;55.750;13.202;2024-03-02T07:43:47;7.40;99.90
17039;DHT22;8636;55.750;13.202;2024-03-02T07:46:22;7.40;99.90
17039;DHT22;8636;55.750;13.202;2024-03-02T07:48:50;7.40;99.90
17039;DHT22;8636;55.750;13.202;2024-03-02T07:51:19;7.50;99.90
17039;DHT22;8636;55.750;13.202;2024-03-02T07:53:54;7.50;99.90
17039;DHT22;8636;55.750;13.202;2024-03-02T07:56:23;7.60;99.90
17039;DHT22;8636;55.750;13.202;2024-03-02T07:58:51;7.60;99.90
17039;DHT22;8636;55.750;13.202;2024-03-02T08:01:27;7.70;99.90
17039;DHT22;8636;55.750;13.202;2024-03-02T08:03:56;7.70;99.90
17039;DHT22;8636;55.750;13.202;2024-03-02T08:06:45;7.70;99.90
17039;DHT22;8636;55.750;13.202;2024-03-02T08:09:13;7.80;99.90
17039;DHT22;8636;55.750;13.202;2024-03-02T08:11:49;7.70;99.90
17039;DHT22;8636;55.750;13.202;2024-03-02T08:14:18;7.70;99.90
17039;DHT22;8636;55.750;13.202;2024-03-02T08:17:06;7.80;99.90
17039;DHT22;8636;55.750;13.202;2024-03-02T08:19:36;7.80;99.90
17039;DHT22;8636;55.750;13.202;2024-03-02T08:22:11;7.80;99.90
17039;DHT22;8636;55.750;13.202;2024-03-02T08:24:40;7.70;99.90
17039;DHT22;8636;55.750;13.202;2024-03-02T08:27:09;7.60;99.90
17039;DHT22;8636;55.750;13.202;2024-03-02T08:29:44;7.60;99.90
17039;DHT22;8636;55.750;13.202;2024-03-02T08:32:12;7.50;99.90
17039;DHT22;8636;55.750;13.202;2024-03-02T08:34:40;7.60;99.90
17039;DHT22;8636;55.750;13.202;2024-03-02T08:37:15;7.60;99.90
17039;DHT22;8636;55.750;13.202;2024-03-02T08:39:43;7.60;99.90
17039;DHT22;8636;55.750;13.202;2024-03-02T08:42:14;7.70;99.90
17039;DHT22;8636;55.750;13.202;2024-03-02T08:44:48;7.70;99.90
17039;DHT22;8636;55.750;13.202;2024-03-02T08:47:16;7.80;99.90
17039;DHT22;8636;55.750;13.202;2024-03-02T08:49:44;7.90;99.90
17039;DHT22;8636;55.750;13.202;2024-03-02T08:52:19;7.90;99.90
17039;DHT22;8636;55.750;13.202;2024-03-02T08:54:47;7.90;99.90
17039;DHT22;8636;55.750;13.202;2024-03-02T08:57:16;7.90;99.90
17039;DHT22;8636;55.750;13.202;2024-03-02T08:59:51;8.00;99.90
17039;DHT22;8636;55.750;13.202;2024-03-02T09:02:19;8.00;99.90
17039;DHT22;8636;55.750;13.202;2024-03-02T09:04:48;8.00;99.90
17039;DHT22;8636;55.750;13.202;2024-03-02T09:07:23;8.00;99.90
17039;DHT22;8636;55.750;13.202;2024-03-02T09:09:57;8.10;99.90
17039;DHT22;8636;55.750;13.202;2024-03-02T09:12:34;8.10;99.90
17039;DHT22;8636;55.750;13.202;2024-03-02T09:15:03;8.10;99.90
17039;DHT22;8636;55.750;13.202;2024-03-02T09:17:39;8.10;99.90
17039;DHT22;8636;55.750;13.202;2024-03-02T09:20:08;8.10;99.90
17039;DHT22;8636;55.750;13.202;2024-03-02T09:22:36;8.10;99.90
17039;DHT22;8636;55.750;13.202;2024-03-02T09:25:10;8.20;99.90
17039;DHT22;8636;55.750;13.202;2024-03-02T09:27:39;8.30;99.90
17039;DHT22;8636;55.750;13.202;2024-03-02T09:30:09;8.40;99.90
17039;DHT22;8636;55.750;13.202;2024-03-02T09:32:44;8.40;99.90
17039;DHT22;8636;55.750;13.202;2024-03-02T09:35:16;8.50;99.90
17039;DHT22;8636;55.750;13.202;2024-03-02T09:37:51;8.50;99.90
17039;DHT22;8636;55.750;13.202;2024-03-02T09:40:22;8.60;99.90
17039;DHT22;8636;55.750;13.202;2024-03-02T09:42:52;8.60;99.90
17039;DHT22;8636;55.750;13.202;2024-03-02T09:45:27;8.50;99.90
17039;DHT22;8636;55.750;13.202;2024-03-02T09:47:55;8.50;99.90
17039;DHT22;8636;55.750;13.202;2024-03-02T09:50:24;8.50;99.90
17039;DHT22;8636;55.750;13.202;2024-03-02T09:52:59;8.50;99.90
17039;DHT22;8636;55.750;13.202;2024-03-02T09:55:27;8.50;99.90
17039;DHT22;8636;55.750;13.202;2024-03-02T09:57:56;8.50;99.90
17039;DHT22;8636;55.750;13.202;2024-03-02T10:00:31;8.50;99.90
17039;DHT22;8636;55.750;13.202;2024-03-02T10:03:00;8.50;99.90
17039;DHT22;8636;55.750;13.202;2024-03-02T10:05:28;8.60;99.90
17039;DHT22;8636;55.750;13.202;2024-03-02T10:08:03;8.60;99.90
17039;DHT22;8636;55.750;13.202;2024-03-02T10:10:35;8.60;99.90
17039;DHT22;8636;55.750;13.202;2024-03-02T10:13:14;8.60;99.90
17039;DHT22;8636;55.750;13.202;2024-03-02T10:15:43;8.60;99.90
17039;DHT22;8636;55.750;13.202;2024-03-02T10:18:11;8.70;99.90
17039;DHT22;8636;55.750;13.202;2024-03-02T10:20:47;8.60;99.90
17039;DHT22;8636;55.750;13.202;2024-03-02T10:23:16;8.60;99.90
17039;DHT22;8636;55.750;13.202;2024-03-02T10:25:44;8.60;99.90
17039;DHT22;8636;55.750;13.202;2024-03-02T10:28:25;8.60;99.90
17039;DHT22;8636;55.750;13.202;2024-03-02T10:30:55;8.60;99.90
17039;DHT22;8636;55.750;13.202;2024-03-02T10:33:29;8.60;99.90
17039;DHT22;8636;55.750;13.202;2024-03-02T10:35:57;8.60;99.90
17039;DHT22;8636;55.750;13.202;2024-03-02T10:38:25;8.60;99.90
17039;DHT22;8636;55.750;13.202;2024-03-02T10:41:00;8.70;99.90
17039;DHT22;8636;55.750;13.202;2024-03-02T10:43:31;8.70;99.90
17039;DHT22;8636;55.750;13.202;2024-03-02T10:46:07;8.60;99.90
17039;DHT22;8636;55.750;13.202;2024-03-02T10:48:35;8.70;99.90
17039;DHT22;8636;55.750;13.202;2024-03-02T10:51:04;8.80;99.90
17039;DHT22;8636;55.750;13.202;2024-03-02T10:53:39;8.90;99.90
17039;DHT22;8636;55.750;13.202;2024-03-02T10:56:08;9.00;99.90
17039;DHT22;8636;55.750;13.202;2024-03-02T10:58:38;9.10;99.90
17039;DHT22;8636;55.750;13.202;2024-03-02T11:01:13;9.10;99.90
17039;DHT22;8636;55.750;13.202;2024-03-02T11:03:42;9.10;99.90
17039;DHT22;8636;55.750;13.202;2024-03-02T11:06:13;9.10;99.90
17039;DHT22;8636;55.750;13.202;2024-03-02T11:08:50;9.10;99.90
17039;DHT22;8636;55.750;13.202;2024-03-02T11:11:25;9.10;99.90
17039;DHT22;8636;55.750;13.202;2024-03-02T11:14:05;9.10;99.90
17039;DHT22;8636;55.750;13.202;2024-03-02T11:16:37;9.10;99.90
17039;DHT22;8636;55.750;13.202;2024-03-02T11:19:13;9.10;99.90
17039;DHT22;8636;55.750;13.202;2024-03-02T11:21:43;9.10;99.90
17039;DHT22;8636;55.750;13.202;2024-03-02T11:24:30;9.20;99.90
17039;DHT22;8636;55.750;13.202;2024-03-02T11:27:05;9.20;99.90
17039;DHT22;8636;55.750;13.202;2024-03-02T11:29:46;9.20;99.90
17039;DHT22;8636;55.750;13.202;2024-03-02T11:32:17;9.20;99.90
17039;DHT22;8636;55.750;13.202;2024-03-02T11:34:52;9.20;99.90
17039;DHT22;8636;55.750;13.202;2024-03-02T11:37:20;9.20;99.90
17039;DHT22;8636;55.750;13.202;2024-03-02T11:39:51;9.30;99.90
17039;DHT22;8636;55.750;13.202;2024-03-02T11:42:26;9.30;99.90
17039;DHT22;8636;55.750;13.202;2024-03-02T11:44:56;9.30;99.90
17039;DHT22;8636;55.750;13.202;2024-03-02T11:47:31;9.30;99.90
17039;DHT22;8636;55.750;13.202;2024-03-02T11:50:08;9.40;99.90
17039;DHT22;8636;55.750;13.202;2024-03-02T11:52:36;9.40;99.90
17039;DHT22;8636;55.750;13.202;2024-03-02T11:55:07;9.50;99.90
17039;DHT22;8636;55.750;13.202;2024-03-02T11:57:43;9.60;99.90
17039;DHT22;8636;55.750;13.202;2024-03-02T12:00:18;9.50;99.90
17039;DHT22;8636;55.750;13.202;2024-03-02T12:03:00;9.50;99.90
17039;DHT22;8636;55.750;13.202;2024-03-02T12:05:35;9.60;99.90
17039;DHT22;8636;55.750;13.202;2024-03-02T12:08:11;9.50;99.90
17039;DHT22;8636;55.750;13.202;2024-03-02T12:10:56;9.40;99.90
17039;DHT22;8636;55.750;13.202;2024-03-02T12:13:31;9.40;99.90
17039;DHT22;8636;55.750;13.202;2024-03-02T12:16:01;9.40;99.90
17039;DHT22;8636;55.750;13.202;2024-03-02T12:18:29;9.40;99.90
17039;DHT22;8636;55.750;13.202;2024-03-02T12:21:04;9.30;99.90
17039;DHT22;8636;55.750;13.202;2024-03-02T12:23:35;9.30;99.90
17039;DHT22;8636;55.750;13.202;2024-03-02T12:26:03;9.40;99.90
17039;DHT22;8636;55.750;13.202;2024-03-02T12:28:38;9.50;99.90
17039;DHT22;8636;55.750;13.202;2024-03-02T12:31:08;9.50;99.90
17039;DHT22;8636;55.750;13.202;2024-03-02T12:33:36;9.50;99.90
17039;DHT22;8636;55.750;13.202;2024-03-02T12:36:10;9.50;99.90
17039;DHT22;8636;55.750;13.202;2024-03-02T12:38:43;9.40;99.90
17039;DHT22;8636;55.750;13.202;2024-03-02T12:41:18;9.30;99.90
17039;DHT22;8636;55.750;13.202;2024-03-02T12:43:46;9.30;99.90
17039;DHT22;8636;55.750;13.202;2024-03-02T12:46:15;9.20;99.90
17039;DHT22;8636;55.750;13.202;2024-03-02T12:48:50;9.20;99.90
17039;DHT22;8636;55.750;13.202;2024-03-02T12:51:19;9.30;99.90
17039;DHT22;8636;55.750;13.202;2024-03-02T12:53:53;9.30;99.90
17039;DHT22;8636;55.750;13.202;2024-03-02T12:56:28;9.30;99.90
17039;DHT22;8636;55.750;13.202;2024-03-02T12:58:58;9.20;99.90
17039;DHT22;8636;55.750;13.202;2024-03-02T13:01:27;9.20;99.90
17039;DHT22;8636;55.750;13.202;2024-03-02T13:04:02;9.10;99.90
17039;DHT22;8636;55.750;13.202;2024-03-02T13:06:38;9.10;99.90
17039;DHT22;8636;55.750;13.202;2024-03-02T13:09:14;9.10;99.90
17039;DHT22;8636;55.750;13.202;2024-03-02T13:11:43;9.10;99.90
17039;DHT22;8636;55.750;13.202;2024-03-02T13:14:12;9.00;99.90
17039;DHT22;8636;55.750;13.202;2024-03-02T13:16:47;9.00;99.90
17039;DHT22;8636;55.750;13.202;2024-03-02T13:19:15;8.90;99.90
17039;DHT22;8636;55.750;13.202;2024-03-02T13:21:45;8.80;99.90
17039;DHT22;8636;55.750;13.202;2024-03-02T13:24:20;8.80;99.90
17039;DHT22;8636;55.750;13.202;2024-03-02T13:26:48;8.80;99.90
17039;DHT22;8636;55.750;13.202;2024-03-02T13:29:18;8.80;99.90
17039;DHT22;8636;55.750;13.202;2024-03-02T13:31:55;8.80;99.90
17039;DHT22;8636;55.750;13.202;2024-03-02T13:34:24;8.80;99.90
17039;DHT22;8636;55.750;13.202;2024-03-02T13:36:52;8.80;99.90
17039;DHT22;8636;55.750;13.202;2024-03-02T13:39:27;8.80;99.90
17039;DHT22;8636;55.750;13.202;2024-03-02T13:41:57;8.80;99.90
17039;DHT22;8636;55.750;13.202;2024-03-02T13:44:37;8.80;99.90
17039;DHT22;8636;55.750;13.202;2024-03-02T13:47:07;8.70;99.90
17039;DHT22;8636;55.750;13.202;2024-03-02T13:49:35;8.70;99.90
17039;DHT22;8636;55.750;13.202;2024-03-02T13:52:10;8.70;99.90
17039;DHT22;8636;55.750;13.202;2024-03-02T13:54:41;8.70;99.90
17039;DHT22;8636;55.750;13.202;2024-03-02T13:57:10;8.70;99.90
17039;DHT22;8636;55.750;13.202;2024-03-02T13:59:45;8.70;99.90
17039;DHT22;8636;55.750;13.202;2024-03-02T14:02:15;8.60;99.90
17039;DHT22;8636;55.750;13.202;2024-03-02T14:04:43;8.60;99.90
17039;DHT22;8636;55.750;13.202;2024-03-02T14:07:18;8.50;99.90
17039;DHT22;8636;55.750;13.202;2024-03-02T14:09:52;8.50;99.90
17039;DHT22;8636;55.750;13.202;2024-03-02T14:12:27;8.50;99.90
17039;DHT22;8636;55.750;13.202;2024-03-02T14:14:55;8.50;99.90
17039;DHT22;8636;55.750;13.202;2024-03-02T14:17:26;8.40;99.90
17039;DHT22;8636;55.750;13.202;2024-03-02T14:20:01;8.40;99.90
17039;DHT22;8636;55.750;13.202;2024-03-02T14:22:32;8.40;99.90
17039;DHT22;8636;55.750;13.202;2024-03-02T14:25:01;8.40;99.90
17039;DHT22;8636;55.750;13.202;2024-03-02T14:27:35;8.40;99.90
17039;DHT22;8636;55.750;13.202;2024-03-02T14:30:23;8.40;99.90
17039;DHT22;8636;55.750;13.202;2024-03-02T14:32:59;8.40;99.90
17039;DHT22;8636;55.750;13.202;2024-03-02T14:35:28;8.40;99.90
17039;DHT22;8636;55.750;13.202;2024-03-02T14:38:11;8.40;99.90
17039;DHT22;8636;55.750;13.202;2024-03-02T14:40:46;8.30;99.90
17039;DHT22;8636;55.750;13.202;2024-03-02T14:43:20;8.30;99.90
17039;DHT22;8636;55.750;13.202;2024-03-02T14:45:55;8.30;99.90
17039;DHT22;8636;55.750;13.202;2024-03-02T14:48:26;8.30;99.90
17039;DHT22;8636;55.750;13.202;2024-03-02T14:50:54;8.30;99.90
17039;DHT22;8636;55.750;13.202;2024-03-02T14:53:29;8.30;99.90
17039;DHT22;8636;55.750;13.202;2024-03-02T14:55:57;8.30;99.90
17039;DHT22;8636;55.750;13.202;2024-03-02T14:58:25;8.30;99.90
17039;DHT22;8636;55.750;13.202;2024-03-02T15:01:00;8.30;99.90
17039;DHT22;8636;55.750;13.202;2024-03-02T15:03:30;8.30;99.90
17039;DHT22;8636;55.750;13.202;2024-03-02T15:05:58;8.40;99.90
17039;DHT22;8636;55.750;13.202;2024-03-02T15:08:39;8.30;99.90
17039;DHT22;8636;55.750;13.202;2024-03-02T15:11:08;8.30;99.90
17039;DHT22;8636;55.750;13.202;2024-03-02T15:13:44;8.30;99.90
17039;DHT22;8636;55.750;13.202;2024-03-02T15:16:12;8.30;99.90
17039;DHT22;8636;55.750;13.202;2024-03-02T15:18:42;8.30;99.90
17039;DHT22;8636;55.750;13.202;2024-03-02T15:21:16;8.40;99.90
17039;DHT22;8636;55.750;13.202;2024-03-02T15:23:48;8.40;99.90
17039;DHT22;8636;55.750;13.202;2024-03-02T15:26:16;8.30;99.90
17039;DHT22;8636;55.750;13.202;2024-03-02T15:28:51;8.30;99.90
17039;DHT22;8636;55.750;13.202;2024-03-02T15:31:20;8.30;99.90
17039;DHT22;8636;55.750;13.202;2024-03-02T15:33:50;8.30;99.90
17039;DHT22;8636;55.750;13.202;2024-03-02T15:36:26;8.30;99.90
17039;DHT22;8636;55.750;13.202;2024-03-02T15:38:55;8.30;99.90
17039;DHT22;8636;55.750;13.202;2024-03-02T15:41:24;8.30;99.90
17039;DHT22;8636;55.750;13.202;2024-03-02T15:43:58;8.30;99.90
17039;DHT22;8636;55.750;13.202;2024-03-02T15:46:26;8.30;99.90
17039;DHT22;8636;55.750;13.202;2024-03-02T15:48:55;8.30;99.90
17039;DHT22;8636;55.750;13.202;2024-03-02T15:51:30;8.40;99.90
17039;DHT22;8636;55.750;13.202;2024-03-02T15:54:00;8.40;99.90
17039;DHT22;8636;55.750;13.202;2024-03-02T15:56:29;8.40;99.90
17039;DHT22;8636;55.750;13.202;2024-03-02T15:59:03;8.40;99.90
17039;DHT22;8636;55.750;13.202;2024-03-02T16:01:32;8.40;99.90
17039;DHT22;8636;55.750;13.202;2024-03-02T16:04:02;8.40;99.90
17039;DHT22;8636;55.750;13.202;2024-03-02T16:06:36;8.40;99.90
17039;DHT22;8636;55.750;13.202;2024-03-02T16:09:10;8.50;99.90
17039;DHT22;8636;55.750;13.202;2024-03-02T16:11:45;8.50;99.90
17039;DHT22;8636;55.750;13.202;2024-03-02T16:14:13;8.50;99.90